• Join FlightAware (Why Join?)
  • Login
  • US Flag 
03:35AM EDT


 

Airport Tracker/Info


-or-


 

Live Flight TrackerFlight Track Log ✈ CCA4385 ✈ 30-Jun-2013 ✈ ZUCK / CKG - ZGKL / KWL

Flight Track Log - Related Links

Times and Time Zones

All times are in EDT time to prevent confusion due to time zone crossing. See the CCA4385 flight status page for this flight to view local times or setup timezone preferences in your user account.

Time Position Orientation Groundspeed Altitude Reporting Facility
EDT Latitude Longitude Course Direction KTS MPH feet Rate Location/Type
01:16AM 29.6410 106.8640 177° South 343 395 18,500  Level FlightAware
01:16AM 29.5870 106.8670 177° South 355 409 18,700 1,140 Climbing FlightAware
01:17AM 29.5020 106.8720 177° South 358 412 20,100 900 Climbing FlightAware
01:18AM 29.4290 106.8770 177° South 358 412 20,100  Level FlightAware
01:19AM 29.3770 106.8800 177° South 358 412 20,100  Level FlightAware
01:19AM 29.3260 106.8830 177° South 358 412 20,100  Level FlightAware
01:21AM 29.2110 106.8900 177° South 358 412 20,100  Level FlightAware
01:23AM 28.9612 107.0956 144° Southeast  Level Estimated
01:24AM 28.8307 107.2025 144° Southeast  Level Estimated
01:25AM 28.7002 107.3092 144° Southeast  Level Estimated
01:26AM 28.5695 107.4155 144° Southeast  Level Estimated
01:27AM 28.4388 107.5216 144° Southeast  Level Estimated
01:28AM 28.3080 107.6275 145° Southeast  Level Estimated
01:29AM 28.1771 107.7330 145° Southeast  Level Estimated
01:30AM 28.0462 107.8384 145° Southeast  Level Estimated
01:31AM 27.9151 107.9434 145° Southeast  Level Estimated
01:32AM 27.7840 108.0482 145° Southeast  Level Estimated
01:33AM 27.6528 108.1528 145° Southeast  Level Estimated
01:34AM 27.5215 108.2571 145° Southeast  Level Estimated
01:35AM 27.3902 108.3611 145° Southeast  Level Estimated
01:36AM 27.2587 108.4649 145° Southeast  Level Estimated
01:37AM 27.1272 108.5685 145° Southeast  Level Estimated
01:38AM 26.9956 108.6718 145° Southeast  Level Estimated
01:39AM 26.8640 108.7749 145° Southeast  Level Estimated
01:40AM 26.7323 108.8777 145° Southeast  Level Estimated
01:41AM 26.6005 108.9803 145° Southeast  Level Estimated
01:42AM 26.4686 109.0827 145° Southeast  Level Estimated
01:43AM 26.3366 109.1848 145° Southeast  Level Estimated
01:44AM 26.2046 109.2867 145° Southeast  Level Estimated
01:45AM 26.0725 109.3884 145° Southeast  Level Estimated
01:46AM 25.9403 109.4898 145° Southeast  Level Estimated
01:47AM 25.8081 109.5910 145° Southeast  Level Estimated
01:48AM 25.6758 109.6920 145° Southeast  Level Estimated
01:49AM 25.5434 109.7928 146° Southeast  Level Estimated
01:50AM 25.4109 109.8933 146° Southeast  Level Estimated
01:51AM 25.2784 109.9936 146° Southeast  Level Estimated
01:52AM 25.2181 110.0392 146° Southeast  Level Estimated
01:53AM 25.2181 110.0392 214° Southwest  Level Estimated
01:54AM 25.2181 110.0392 214° Southwest  Level Estimated
01:55AM 25.2181 110.0392 214° Southwest  Level Estimated
01:56AM 25.2181 110.0392 214° Southwest  Level Estimated
01:57AM 25.2181 110.0392 214° Southwest  Level Estimated
01:58AM 25.2181 110.0392 214° Southwest  Level Estimated
01:59AM 25.2181 110.0392 214° Southwest  Level Estimated
02:00AM 25.2181 110.0392 214° Southwest  Level Estimated
02:01AM 25.2181 110.0392 214° Southwest  Level Estimated
02:02AM 25.2181 110.0392 214° Southwest  Level Estimated
02:03AM 25.2181 110.0392 214° Southwest  Level Estimated
02:04AM 25.2181 110.0392 214° Southwest  Level Estimated
02:05AM 25.2181 110.0392 214° Southwest  Level Estimated
02:06AM 25.2181 110.0392 214° Southwest  Level Estimated